Latest Weather Observations for Noarlunga

IDS60801

Issued at 10:42 pm CDT Friday 15 November 2019 (issued every 10 minutes, with the page automatically refreshed every 10 minutes)

About weather observations | Map of weather stations | Latest weather observations for SA | Other Formats
Station Details ID: 023885 Name: NOARLUNGA Lat: -35.16 Lon: 138.51 Height: 55.0 m
Data from the previous 72 hours. | See also: Recent months at Noarlunga
Date/Time
CDT
Temp
°C
App
Temp
°C
Dew
Point
°C
Rel
Hum
%
Delta-T
°C
Wind Press
QNH
hPa
Press
MSL
hPa
Rain since
9am
mm
Dir  Spd
km/h
Gust
km/h
Spd
kts
Gust
kts
15/10:30pm 12.4 10.0 6.9 69 2.6 S 9 13 5 7 - - 0.0
15/10:00pm 12.7 10.4 7.6 71 2.5 SSE 9 13 5 7 - - 0.0
15/09:30pm 13.2 10.9 7.6 69 2.7 S 9 13 5 7 - - 0.0
15/09:00pm 13.6 11.0 7.8 68 2.9 S 11 20 6 11 - - 0.0
15/08:30pm 14.2 11.2 7.7 65 3.2 S 13 22 7 12 - - 0.0
15/08:00pm 15.0 11.6 7.8 62 3.6 S 15 22 8 12 - - 0.0
15/07:30pm 15.3 12.8 9.7 69 2.9 S 13 24 7 13 - - 0.0
15/07:00pm 15.8 13.2 10.6 71 2.8 WSW 15 22 8 12 - - 0.0
15/06:30pm 16.0 13.6 9.9 67 3.2 W 13 20 7 11 - - 0.0
15/06:00pm 16.6 14.0 9.3 62 3.8 WSW 13 24 7 13 - - 0.0
15/05:30pm 16.3 12.9 9.0 62 3.8 WSW 17 24 9 13 - - 0.0
15/05:00pm 16.3 13.1 8.5 60 4.0 WSW 15 22 8 12 - - 0.0
15/04:30pm 16.3 13.1 8.5 60 4.0 WSW 15 20 8 11 - - 0.0
15/04:00pm 16.4 13.1 7.9 57 4.3 W 15 20 8 11 - - 0.0
15/03:30pm 16.3 12.9 7.5 56 4.4 WSW 15 24 8 13 - - 0.0
15/03:00pm 16.8 13.0 7.7 55 4.6 W 17 28 9 15 - - 0.0
15/02:30pm 16.9 13.0 7.0 52 4.9 WSW 17 26 9 14 - - 0.0
15/02:00pm 17.1 13.2 6.9 51 5.1 W 17 24 9 13 - - 0.0
15/01:30pm 17.6 13.7 7.1 50 5.3 WSW 17 26 9 14 - - 0.0
15/01:00pm 17.4 13.5 6.9 50 5.2 WSW 17 28 9 15 - - 0.0
15/12:30pm 16.9 12.9 6.7 51 5.0 WSW 17 26 9 14 - - 0.0
15/12:00pm 16.6 12.7 7.0 53 4.8 WSW 17 26 9 14 - - 0.0
15/11:30am 16.4 12.8 6.8 53 4.7 WSW 15 22 8 12 - - 0.0
15/11:00am 16.4 12.4 6.5 52 4.9 WSW 17 24 9 13 - - 0.0
15/10:30am 15.4 11.1 6.9 57 4.2 WSW 19 30 10 16 - - 0.0
15/10:00am 15.4 11.5 7.2 58 4.1 WSW 17 24 9 13 - - 0.0
15/09:30am 15.3 11.3 6.8 57 4.2 W 17 28 9 15 - - 0.0
15/09:00am 15.3 11.6 6.3 55 4.4 WSW 15 24 8 13 - - 0.0
15/08:30am 14.7 11.1 6.8 59 3.9 WSW 15 26 8 14 - - 0.0
15/08:00am 14.7 11.0 6.3 57 4.1 WSW 15 22 8 12 - - 0.0
15/07:30am 14.4 9.9 6.3 58 3.9 WSW 19 26 10 14 - - 0.0
15/07:00am 14.2 11.0 6.8 61 3.6 WSW 13 22 7 12 - - 0.0
15/06:30am 14.0 11.1 6.6 61 3.6 WSW 11 17 6 9 - - 0.0
15/06:00am 14.0 10.3 6.1 59 3.8 WSW 15 26 8 14 - - 0.0
15/05:30am 14.1 9.8 6.9 62 3.5 WSW 19 30 10 16 - - 0.0
15/05:00am 14.1 11.2 6.7 61 3.6 W 11 24 6 13 - - 0.0
15/04:30am 14.0 10.2 5.9 58 3.9 W 15 24 8 13 - - 0.0
15/04:00am 14.0 10.7 6.4 60 3.7 WSW 13 20 7 11 - - 0.0
15/03:30am 14.0 9.9 6.4 60 3.7 WSW 17 24 9 13 - - 0.0
15/03:00am 14.1 10.5 6.9 62 3.5 WSW 15 24 8 13 - - 0.0
15/02:30am 14.2 10.6 6.8 61 3.6 W 15 24 8 13 - - 0.0
15/02:00am 14.2 10.7 7.0 62 3.5 W 15 24 8 13 - - 0.0
15/01:30am 14.2 10.2 6.6 60 3.7 W 17 28 9 15 - - 0.0
15/01:00am 14.2 11.1 7.3 63 3.4 W 13 26 7 14 - - 0.0
15/12:30am 13.9 10.7 6.7 62 3.5 W 13 20 7 11 - - 0.0
15/12:00am 14.4 11.4 7.9 65 3.2 W 13 22 7 12 - - 0.0
 
Date/Time
CDT
Temp
°C
App
Temp
°C
Dew
Point
°C
Rel
Hum
%
Delta-T
°C
Wind Press
QNH
hPa
Press
MSL
hPa
Rain since
9am
mm
Dir  Spd
km/h
Gust
km/h
Spd
kts
Gust
kts
14/11:30pm 14.4 11.6 8.4 67 3.0 W 13 22 7 12 - - 0.0
14/11:00pm 14.3 11.7 7.8 65 3.2 W 11 24 6 13 - - 0.0
14/10:30pm 14.2 11.2 7.7 65 3.2 W 13 22 7 12 - - 0.0
14/10:00pm 14.5 11.4 7.3 62 3.5 W 13 26 7 14 - - 0.0
14/09:30pm 14.4 11.4 7.5 63 3.4 WSW 13 20 7 11 - - 0.0
14/09:00pm 14.3 10.9 7.8 65 3.2 WSW 15 26 8 14 - - 0.0
14/08:30pm 14.5 10.7 7.5 63 3.5 WSW 17 26 9 14 - - 0.0
14/08:00pm 14.8 10.6 8.1 64 3.4 WSW 20 33 11 18 - - 0.0
14/07:30pm 15.8 11.8 8.1 60 3.9 WSW 19 33 10 18 - - 0.0
14/07:00pm 16.2 12.1 8.7 61 3.8 WSW 20 32 11 17 - - 0.0
14/06:30pm 16.1 12.2 9.3 64 3.5 WSW 20 35 11 19 - - 0.0
14/06:00pm 16.6 12.0 8.1 57 4.3 WSW 22 35 12 19 - - 0.0
14/05:30pm 16.9 12.6 7.8 55 4.6 WSW 20 30 11 16 - - 0.0
14/05:00pm 16.8 12.7 8.5 58 4.3 W 20 32 11 17 - - 0.0
14/04:30pm 17.8 14.5 9.4 58 4.4 W 17 26 9 14 - - 0.0
14/04:00pm 18.1 14.6 8.9 55 4.8 WSW 17 24 9 13 - - 0.0
14/03:30pm 18.1 14.3 8.9 55 4.8 W 19 32 10 17 - - 0.0
14/03:00pm 18.1 14.4 7.8 51 5.3 W 17 28 9 15 - - 0.0
14/02:30pm 18.1 14.4 8.1 52 5.1 W 17 26 9 14 - - 0.0
14/02:00pm 17.6 14.0 8.5 55 4.7 W 17 24 9 13 - - 0.0
14/01:30pm 17.5 13.8 7.8 53 4.9 WNW 17 26 9 14 - - 0.0
14/01:00pm 17.2 13.5 8.1 55 4.6 WNW 17 28 9 15 - - 0.0
14/12:30pm 17.1 13.6 8.8 58 4.3 W 17 26 9 14 - - 0.0
14/12:00pm 16.5 12.6 7.2 54 4.6 WNW 17 26 9 14 - - 0.0
14/11:30am 16.2 12.1 7.7 57 4.3 WNW 19 28 10 15 - - 0.0
14/11:00am 15.5 11.4 7.8 60 3.9 W 19 32 10 17 - - 0.0
14/10:30am 14.9 12.2 10.5 75 2.3 WNW 15 24 8 13 - - 0.0
14/10:00am 14.0 11.7 10.4 79 1.9 WNW 13 24 7 13 - - 0.0
14/09:30am 13.6 10.7 9.8 78 2.0 WSW 15 26 8 14 - - 0.0
14/09:00am 13.2 11.6 10.2 82 1.6 WNW 9 20 5 11 - - 0.6
14/08:30am 13.0 11.6 10.9 87 1.1 W 9 15 5 8 - - 0.6
14/08:00am 13.0 11.2 10.9 87 1.1 WNW 11 17 6 9 - - 0.4
14/07:30am 12.9 12.4 10.8 87 1.1 W 4 7 2 4 - - 0.4
14/07:00am 12.3 10.3 10.2 87 1.1 WSW 11 19 6 10 - - 0.4
14/06:30am 13.6 12.3 10.0 79 1.9 W 7 13 4 7 - - 0.0
14/06:00am 13.1 10.6 9.7 80 1.7 WSW 13 22 7 12 - - 0.0
14/05:30am 13.4 11.9 9.3 76 2.1 W 7 9 4 5 - - 0.0
14/05:00am 12.9 10.5 8.6 75 2.2 WSW 11 17 6 9 - - 0.0
14/04:30am 13.8 9.8 8.4 70 2.7 WSW 19 28 10 15 - - 0.0
14/04:00am 14.1 11.5 7.6 65 3.2 WSW 11 20 6 11 - - 0.0
14/03:30am 13.9 10.4 7.4 65 3.2 WSW 15 20 8 11 - - 0.0
14/03:00am 13.8 10.7 7.3 65 3.2 WSW 13 20 7 11 - - 0.0
14/02:30am 13.8 10.7 7.1 64 3.3 WSW 13 24 7 13 - - 0.0
14/02:00am 13.9 10.4 7.4 65 3.2 WSW 15 22 8 12 - - 0.0
14/01:30am 14.1 10.7 7.6 65 3.2 WSW 15 24 8 13 - - 0.0
14/01:00am 14.1 11.5 7.6 65 3.2 WSW 11 19 6 10 - - 0.0
14/12:30am 14.2 11.6 7.9 66 3.1 WSW 11 20 6 11 - - 0.0
14/12:00am 14.0 12.5 8.6 70 2.7 SSW 6 17 3 9 - - 0.0
 
Date/Time
CDT
Temp
°C
App
Temp
°C
Dew
Point
°C
Rel
Hum
%
Delta-T
°C
Wind Press
QNH
hPa
Press
MSL
hPa
Rain since
9am
mm
Dir  Spd
km/h
Gust
km/h
Spd
kts
Gust
kts
13/11:30pm 13.9 12.3 8.9 72 2.5 S 7 11 4 6 - - 0.0
13/11:00pm 14.5 12.7 9.3 71 2.7 SW 9 13 5 7 - - 0.0
13/10:30pm 14.5 13.1 9.7 73 2.5 W 7 13 4 7 - - 0.0
13/10:00pm 14.5 11.9 9.5 72 2.6 WSW 13 20 7 11 - - 0.0
13/09:30pm 14.5 11.7 8.7 68 2.9 WSW 13 24 7 13 - - 0.0
13/09:00pm 14.6 11.3 9.4 71 2.7 WSW 17 24 9 13 - - 0.0
13/08:30pm 14.8 11.5 9.4 70 2.8 WSW 17 28 9 15 - - 0.0
13/08:00pm 15.0 12.3 9.1 68 3.0 WSW 13 24 7 13 - - 0.0
13/07:30pm 15.4 12.7 9.1 66 3.2 SW 13 22 7 12 - - 0.0
13/07:00pm 16.2 13.1 8.7 61 3.8 SW 15 26 8 14 - - 0.0
13/06:30pm 16.0 12.4 8.5 61 3.8 WSW 17 28 9 15 - - 0.0
13/06:00pm 16.9 13.6 9.6 62 3.8 WSW 17 28 9 15 - - 0.0
13/05:30pm 17.6 13.9 9.5 59 4.3 WSW 19 32 10 17 - - 0.0
13/05:00pm 17.6 13.4 8.2 54 4.8 WSW 20 30 11 16 - - 0.0
13/04:30pm 17.6 13.5 8.7 56 4.6 WSW 20 30 11 16 - - 0.0
13/04:00pm 17.6 14.0 8.5 55 4.7 WSW 17 30 9 16 - - 0.0
13/03:30pm 18.1 14.2 8.7 54 4.9 WSW 19 28 10 15 - - 0.0
13/03:00pm 17.4 13.6 7.7 53 4.9 W 17 24 9 13 - - 0.0
13/02:30pm 17.5 13.4 7.8 53 4.9 W 19 28 10 15 - - 0.0
13/02:00pm 17.5 13.8 7.8 53 4.9 W 17 26 9 14 - - 0.0
13/01:30pm 17.8 14.3 7.2 50 5.3 W 15 24 8 13 - - 0.0
13/01:00pm 16.9 13.3 6.7 51 5.0 WNW 15 24 8 13 - - 0.0
13/12:30pm 16.0 11.9 6.2 52 4.8 W 17 26 9 14 - - 0.0
13/12:00pm 16.3 12.6 6.4 52 4.8 W 15 28 8 15 - - 0.0
13/11:30am 16.3 12.7 6.7 53 4.7 W 15 26 8 14 - - 0.0
13/11:00am 16.5 13.5 7.7 56 4.4 WSW 13 24 7 13 - - 0.0
13/10:30am 15.6 11.9 6.3 54 4.5 WSW 15 24 8 13 - - 0.0
13/10:00am 15.6 12.4 6.9 56 4.3 WSW 13 22 7 12 - - 0.0
13/09:30am 15.3 12.2 7.1 58 4.0 WSW 13 20 7 11 - - 0.0
13/09:00am 14.7 10.6 6.3 57 4.1 WSW 17 26 9 14 - - 0.0
13/08:30am 13.9 10.4 7.0 63 3.4 SW 15 24 8 13 - - 0.0
13/08:00am 13.9 10.5 7.7 66 3.1 SW 15 22 8 12 - - 0.0
13/07:30am 13.6 9.7 7.2 65 3.1 SW 17 26 9 14 - - 0.0
13/07:00am 13.4 9.4 6.5 63 3.3 WSW 17 28 9 15 - - 0.0
13/06:30am 13.3 9.7 5.2 58 3.8 SW 13 20 7 11 - - 0.0
13/06:00am 12.1 10.6 6.8 70 2.5 SW 4 7 2 4 - - 0.0
13/05:30am 12.5 10.1 7.0 69 2.7 SSW 9 15 5 8 - - 0.0
13/05:00am 12.4 9.2 6.9 69 2.6 SW 13 24 7 13 - - 0.0
13/04:30am 12.6 9.5 7.1 69 2.7 SW 13 24 7 13 - - 0.0
13/04:00am 13.2 9.0 7.4 68 2.8 WSW 19 26 10 14 - - 0.0
13/03:30am 13.2 9.3 7.0 66 3.0 WSW 17 30 9 16 - - 0.0
13/03:00am 13.1 9.4 6.2 63 3.3 WSW 15 26 8 14 - - 0.0
13/02:30am 13.0 10.1 6.4 64 3.2 WSW 11 19 6 10 - - 0.0
13/02:00am 13.1 10.2 6.5 64 3.2 SW 11 17 6 9 - - 0.0
13/01:30am 12.6 10.3 4.8 59 3.6 SSW 6 11 3 6 - - 0.0
13/01:00am 12.7 10.2 4.7 58 3.7 S 7 13 4 7 - - 0.0
13/12:30am 12.9 10.0 4.8 58 3.7 SSW 9 19 5 10 - - 0.0
13/12:00am 12.9 9.2 4.3 56 3.9 SW 13 24 7 13 - - 0.0
 
Date/Time
CDT
Temp
°C
App
Temp
°C
Dew
Point
°C
Rel
Hum
%
Delta-T
°C
Wind Press
QNH
hPa
Press
MSL
hPa
Rain since
9am
mm
Dir  Spd
km/h
Gust
km/h
Spd
kts
Gust
kts
12/11:30pm 13.0 7.9 3.9 54 4.1 SW 20 32 11 17 - - 0.0
12/11:00pm 12.9 8.0 4.3 56 3.9 SW 19 28 10 15 - - 0.0

Other formats

Comma delimited format used in spreadsheet applications
http://www.bom.gov.au/fwo/IDS60801/IDS60801.94808.axf

JavaScript Object Notation format (JSON) in row-major order
http://www.bom.gov.au/fwo/IDS60801/IDS60801.94808.json

Data quality

Most of these data are generated automatically and are frequently updated. Quality checks on data are not normally performed. It is possible for incorrect values to appear. Refer to information at About Latest Weather Observations and please check the disclaimer before using these data.